Airfield :
LOGIN :

Register | Disclaimer

   EN    FR    IT 

 










Legend :    VFR   Marginal VFR   IFR   Intensive IFR   Very Intensive IFR
Visi :
Ceiling :
>= 8 km
>= 3000ft
5 to 8 km
1000 to 3000 ft
1500m to 5 km
500 to 1000 ft
800 to 1500m
200 to 500 ft
< 800m
< 200 ft
Symbols :   Thunderstorms  Fog  Heavy snow  Heavy precipitations  Wind > 20 kt
SIGMETs :     Misc.  Thunderstorms  Icing  Turbulence  Mountain Waves  Volcanic Ashes






- Airport Elevation : 233 ft
- IATA code : REU


LERS - Reus Tarragona

CURRENT METAR :
  • 291000Z 14007KT 070V200 9999 FEW040 20/10 Q1003 WS R25

EXPIRED METARs :
  • 290930Z 19006KT 120V260 9999 FEW050 19/09 Q1003 WS R25
  • 290900Z VRB06KT 9999 FEW050 20/08 Q1003 WS R25
  • 290830Z VRB06KT 9999 FEW050 19/08 Q1003 WS R25
  • 290800Z VRB04G16KT 9999 FEW050 19/09 Q1003
  • 290730Z 30005KT 210V350 9999 FEW050 18/09 Q1003

TAF AMD TAF LERS
Valid from the 29 at 09:00 until the 30 at 09:00 UTC


290936Z 2909/3009 29012KT 9999 FEW040 TX24/2912Z TN12/3005Z
TEMPO 2909/2912 19010KT
TEMPO 2911/2915 29015G25KT
PROB40
TEMPO 2923/3006 31020G30KT
PROB30
TEMPO 2923/3006 31030G43KT



MET'MAP, your aeronautical weather chart ! - Copyright ORBIFLY December 2007 - Disclaimer

ORBIFLY MET'MAP TEAM :

Programming & Development : Alexandra Zaïnal
Original concept : Baudouin d'Aumeries
Technical & hardware support : Manuel Goepfert
Assistance : Marc-Olivier Méhu




SOURCES & CREDITS :

   NOAA